createdAt,value
2016-09-27T00:01:32.943Z,79.69
2016-09-27T00:06:30.999Z,79.94
2016-09-27T00:11:27.211Z,82.38
2016-09-27T00:16:24.300Z,83.34
2016-09-27T00:21:20.697Z,83.05
2016-09-27T00:26:17.170Z,84.48
2016-09-27T00:31:13.635Z,84.29
2016-09-27T00:36:10.404Z,84.20
2016-09-27T00:41:07.020Z,83.81
2016-09-27T00:46:03.292Z,83.81
2016-09-27T00:50:59.843Z,84.77
2016-09-27T00:55:56.175Z,84.29
2016-09-27T01:00:52.632Z,84.10
2016-09-27T01:05:49.360Z,84.86
2016-09-27T01:10:45.753Z,85.25
2016-09-27T01:15:42.336Z,84.10
2016-09-27T01:20:38.907Z,83.76
2016-09-27T01:25:35.575Z,83.00
2016-09-27T01:30:32.196Z,83.67
2016-09-27T01:35:28.813Z,83.72
2016-09-27T01:40:25.355Z,84.10
2016-09-27T01:45:22.305Z,85.15
2016-09-27T01:50:18.876Z,85.97
2016-09-27T01:55:15.456Z,86.25
2016-09-27T02:00:11.700Z,85.87
2016-09-27T02:05:07.943Z,86.10
2016-09-27T02:10:04.353Z,84.96
2016-09-27T02:15:00.908Z,85.87
2016-09-27T02:19:57.682Z,86.82
2016-09-27T02:24:54.224Z,86.44
2016-09-27T02:29:50.739Z,87.02
2016-09-27T02:34:48.443Z,86.92
2016-09-27T02:39:44.607Z,89.17
2016-09-27T02:44:41.040Z,91.22
2016-09-27T02:49:37.437Z,91.27
2016-09-27T02:54:33.915Z,91.27
2016-09-27T02:59:30.335Z,89.64
2016-09-27T03:04:26.786Z,88.98
2016-09-27T03:09:23.287Z,88.98
2016-09-27T03:14:19.927Z,90.03
2016-09-27T03:19:16.857Z,91.69
2016-09-27T03:24:14.169Z,91.50
2016-09-27T03:29:10.593Z,90.79
2016-09-27T03:34:07.183Z,89.74
2016-09-27T03:39:06.281Z,88.98
2016-09-27T03:44:02.668Z,87.97
2016-09-27T03:48:59.255Z,88.64
2016-09-27T03:53:55.791Z,89.93
2016-09-27T03:58:52.294Z,90.50
2016-09-27T04:03:51.176Z,90.50
2016-09-27T04:08:46.994Z,89.74
2016-09-27T04:13:43.747Z,90.41
2016-09-27T04:18:40.848Z,90.50
2016-09-27T04:23:37.498Z,89.74
2016-09-27T04:28:33.631Z,89.83
2016-09-27T04:33:30.435Z,88.88
2016-09-27T04:38:26.759Z,91.13
2016-09-27T04:43:24.139Z,91.13
2016-09-27T04:48:20.040Z,91.60
2016-09-27T04:53:16.740Z,91.60
2016-09-27T04:58:13.114Z,94.03
2016-09-27T05:03:09.393Z,95.17
2016-09-27T05:08:06.832Z,95.27
2016-09-27T05:13:03.164Z,94.79
2016-09-27T05:17:59.689Z,94.32
2016-09-27T05:22:55.846Z,94.17
2016-09-27T05:27:52.762Z,94.17
2016-09-27T05:32:49.368Z,94.56
2016-09-27T05:37:45.974Z,94.84
2016-09-27T05:42:42.597Z,94.27
2016-09-27T05:47:39.450Z,93.41
2016-09-27T05:52:36.109Z,94.84
2016-09-27T05:57:32.422Z,94.74
2016-09-27T06:02:29.398Z,94.74
2016-09-27T06:07:25.893Z,93.03
2016-09-27T06:12:22.742Z,92.41
2016-09-27T06:17:19.342Z,91.74
2016-09-27T06:22:15.634Z,91.55
2016-09-27T06:27:12.316Z,91.07
2016-09-27T06:32:09.726Z,90.79
2016-09-27T06:37:06.199Z,89.78
2016-09-27T06:42:02.820Z,89.78
2016-09-27T06:46:59.727Z,89.35
2016-09-27T06:51:56.251Z,87.63
2016-09-27T06:56:53.335Z,87.73
2016-09-27T07:01:50.167Z,88.34
2016-09-27T07:06:47.010Z,88.30
2016-09-27T07:11:43.985Z,88.63
2016-09-27T07:16:40.910Z,87.58
2016-09-27T07:21:37.395Z,87.15
2016-09-27T07:26:35.177Z,86.38
2016-09-27T07:31:31.652Z,87.24
2016-09-27T07:36:28.081Z,86.29
2016-09-27T07:41:25.285Z,86.29
2016-09-27T07:46:21.540Z,86.52
2016-09-27T07:51:18.285Z,83.94
2016-09-27T07:56:15.310Z,83.75
2016-09-27T08:01:11.636Z,82.83
2016-09-27T08:06:09.042Z,82.87
2016-09-27T08:11:06.267Z,82.01
2016-09-27T08:16:04.924Z,81.44
2016-09-27T08:21:01.345Z,82.01
2016-09-27T08:25:57.993Z,81.67
2016-09-27T08:30:55.023Z,80.24
2016-09-27T08:35:51.824Z,79.85
2016-09-27T08:40:48.254Z,79.41
2016-09-27T08:45:47.310Z,78.36
2016-09-27T08:50:43.470Z,77.88
2016-09-27T08:55:40.054Z,78.02
2016-09-27T09:00:36.705Z,78.20
2016-09-27T09:05:33.463Z,77.73
2016-09-27T09:10:30.033Z,76.86
2016-09-27T09:15:26.716Z,76.32
2016-09-27T09:20:23.535Z,75.65
2016-09-27T09:25:20.294Z,74.54
2016-09-27T09:30:17.045Z,73.30
2016-09-27T09:35:13.534Z,73.14
2016-09-27T09:40:10.427Z,73.04
2016-09-27T09:45:06.984Z,71.51
2016-09-27T09:50:03.333Z,70.87
2016-09-27T09:55:00.003Z,70.04
2016-09-27T09:59:56.960Z,68.89
2016-09-27T10:04:53.699Z,68.41
2016-09-27T10:09:50.938Z,67.86
2016-09-27T10:14:47.545Z,67.96
2016-09-27T10:19:44.705Z,66.14
2016-09-27T10:24:42.529Z,66.52
2016-09-27T10:29:39.088Z,64.92
2016-09-27T10:34:35.903Z,63.99
2016-09-27T10:39:33.486Z,62.45
2016-09-27T10:44:29.870Z,62.83
2016-09-27T10:49:26.867Z,61.29
2016-09-27T10:54:23.724Z,56.63
2016-09-27T10:59:21.047Z,56.30
2016-09-27T11:04:21.104Z,50.52
2016-09-27T11:09:21.905Z,43.74
2016-09-27T11:14:21.768Z,40.50
2016-09-27T11:19:20.154Z,38.57
2016-09-27T11:24:18.922Z,34.50
2016-09-27T11:29:18.691Z,33.49
2016-09-27T11:34:16.675Z,32.42
2016-09-27T11:39:13.069Z,33.72
2016-09-27T11:44:10.893Z,33.28
2016-09-27T11:49:08.386Z,31.76
2016-09-27T11:54:05.662Z,32.34
2016-09-27T11:59:01.011Z,34.59
2016-09-27T12:03:59.364Z,35.16
2016-09-27T12:08:56.025Z,36.04
2016-09-27T12:13:50.120Z,38.42
2016-09-27T12:18:49.514Z,39.45
2016-09-27T12:23:42.648Z,47.70
2016-09-27T12:28:38.137Z,46.13
2016-09-27T12:33:34.490Z,42.55
2016-09-27T12:38:29.356Z,44.78
2016-09-27T12:43:24.661Z,46.66
2016-09-27T12:48:20.702Z,47.89
2016-09-27T12:53:17.059Z,49.24
2016-09-27T12:58:14.459Z,46.69
2016-09-27T13:03:12.634Z,44.95
2016-09-27T13:08:08.205Z,47.12
2016-09-27T13:13:04.132Z,48.54
2016-09-27T13:18:01.009Z,49.24
2016-09-27T13:22:56.876Z,50.47
2016-09-27T13:27:53.635Z,50.09
2016-09-27T13:32:50.441Z,49.43
2016-09-27T13:37:46.982Z,47.89
2016-09-27T13:42:44.318Z,49.05
2016-09-27T13:47:41.487Z,49.17
2016-09-27T13:52:39.440Z,45.62
2016-09-27T13:57:37.179Z,44.85
2016-09-27T14:07:40.401Z,44.18
2016-09-27T14:12:36.087Z,46.55
2016-09-27T14:17:32.060Z,46.83
2016-09-27T14:22:28.356Z,46.93
2016-09-27T14:27:24.699Z,47.12
2016-09-27T14:32:21.215Z,47.80
2016-09-27T14:37:17.908Z,47.22
2016-09-27T14:42:15.694Z,47.10
2016-09-27T14:47:11.976Z,46.81
2016-09-27T14:52:09.586Z,47.58
2016-09-27T14:57:06.208Z,46.62
2016-09-27T15:02:04.341Z,45.94
2016-09-27T15:07:00.589Z,46.91
2016-09-27T15:11:58.184Z,47.49
2016-09-27T15:16:54.408Z,47.29
2016-09-27T15:21:51.181Z,49.02
2016-09-27T15:26:48.085Z,48.44
2016-09-27T15:31:44.661Z,48.16
2016-09-27T15:36:42.321Z,48.81
2016-09-27T15:41:38.576Z,47.65
2016-09-27T15:46:35.185Z,47.56
2016-09-27T15:51:31.969Z,48.71
2016-09-27T15:56:28.359Z,49.38
2016-09-27T16:01:25.203Z,49.94
2016-09-27T16:06:21.902Z,50.23
2016-09-27T16:11:18.776Z,50.42
2016-09-27T16:16:14.926Z,51.48
2016-09-27T16:21:11.725Z,51.86
2016-09-27T16:26:08.241Z,51.96
2016-09-27T16:31:04.930Z,52.15
2016-09-27T16:36:01.365Z,53.21
2016-09-27T16:40:57.865Z,53.86
2016-09-27T16:45:54.030Z,55.56
2016-09-27T16:50:50.914Z,55.76
2016-09-27T16:55:47.367Z,55.94
2016-09-27T17:00:44.170Z,56.68
2016-09-27T17:05:40.447Z,56.98
2016-09-27T17:10:36.888Z,57.55
2016-09-27T17:15:33.295Z,57.62
2016-09-27T17:20:30.261Z,58.48
2016-09-27T17:25:26.971Z,58.48
2016-09-27T17:30:23.521Z,59.64
2016-09-27T17:35:20.087Z,59.73
2016-09-27T17:40:16.649Z,60.75
2016-09-27T17:45:13.266Z,60.75
2016-09-27T17:50:09.761Z,61.91
2016-09-27T17:55:07.463Z,62.55
2016-09-27T18:00:03.811Z,63.70
2016-09-27T18:05:00.130Z,63.79
2016-09-27T18:09:56.611Z,64.09
2016-09-27T18:14:53.289Z,64.37
2016-09-27T18:19:50.146Z,65.20
2016-09-27T18:24:47.564Z,65.59
2016-09-27T18:29:43.911Z,66.55
2016-09-27T18:34:40.563Z,66.89
2016-09-27T18:39:37.602Z,67.28
2016-09-27T18:44:34.160Z,68.43
2016-09-27T18:49:30.869Z,68.78
2016-09-27T18:54:27.659Z,70.03
2016-09-27T18:59:24.452Z,70.41
2016-09-27T19:04:22.309Z,71.94
2016-09-27T19:09:18.349Z,71.62
2016-09-27T19:14:14.681Z,72.29
2016-09-27T19:19:11.300Z,72.77
2016-09-27T19:24:07.815Z,72.77
2016-09-27T19:29:05.145Z,72.77
2016-09-27T19:34:01.903Z,71.81
2016-09-27T19:38:58.453Z,71.81
2016-09-27T19:43:55.153Z,71.91
2016-09-27T19:48:51.692Z,71.33
2016-09-27T19:53:47.678Z,71.17
2016-09-27T19:58:44.285Z,70.85
2016-09-27T20:03:40.922Z,70.85
2016-09-27T20:08:37.586Z,71.04
2016-09-27T20:13:34.665Z,71.37
2016-09-27T20:18:31.104Z,71.66
2016-09-27T20:23:28.275Z,71.84
2016-09-27T20:28:25.076Z,71.84
2016-09-27T20:33:21.376Z,71.46
2016-09-27T20:38:17.810Z,71.56
2016-09-27T20:43:14.272Z,70.85
2016-09-27T20:48:11.052Z,71.08
2016-09-27T20:53:07.954Z,71.14
2016-09-27T20:58:04.846Z,71.23
2016-09-27T21:03:02.860Z,71.14
2016-09-27T21:07:59.140Z,70.76
2016-09-27T21:12:55.499Z,70.47
2016-09-27T21:17:51.710Z,69.80
2016-09-27T21:22:48.840Z,70.18
2016-09-27T21:27:44.983Z,70.56
2016-09-27T21:32:41.876Z,70.18
2016-09-27T21:37:40.412Z,70.37
2016-09-27T21:42:38.250Z,69.80
2016-09-27T21:47:34.268Z,69.70
2016-09-27T21:52:31.133Z,69.32
2016-09-27T21:57:27.467Z,70.28
2016-09-27T22:02:24.486Z,70.56
2016-09-27T22:07:20.840Z,71.48
2016-09-27T22:12:17.256Z,71.39
2016-09-27T22:17:14.323Z,71.39
2016-09-27T22:22:12.046Z,71.11
2016-09-27T22:27:08.729Z,71.20
2016-09-27T22:32:05.087Z,71.77
2016-09-27T22:37:01.639Z,71.20
2016-09-27T22:41:58.513Z,71.77
2016-09-27T22:46:54.985Z,72.34
2016-09-27T22:51:53.035Z,72.92
2016-09-27T22:56:49.448Z,73.21
2016-09-27T23:01:46.383Z,73.21
2016-09-27T23:06:43.237Z,73.30
2016-09-27T23:11:40.009Z,73.88
2016-09-27T23:16:36.962Z,74.07
2016-09-27T23:21:33.714Z,74.07
2016-09-27T23:26:30.415Z,74.32
2016-09-27T23:31:26.845Z,74.99
2016-09-27T23:36:24.087Z,74.61
2016-09-27T23:41:20.454Z,74.99
2016-09-27T23:46:18.369Z,75.18
2016-09-27T23:51:14.382Z,75.47
2016-09-27T23:56:11.419Z,76.04
